createdAt,value
2022-11-12T00:01:14.920Z,97913.03
2022-11-12T00:03:43.231Z,97902.88
2022-11-12T00:06:11.547Z,97916.13
2022-11-12T00:08:39.847Z,97913.09
2022-11-12T00:11:09.559Z,97908.47
2022-11-12T00:13:37.897Z,97916.28
2022-11-12T00:16:07.039Z,97922.81
2022-11-12T00:18:35.440Z,97922.81
2022-11-12T00:21:03.787Z,97924.06
2022-11-12T00:23:32.083Z,97920.56
2022-11-12T00:26:01.209Z,97929.16
2022-11-12T00:28:36.388Z,97928.72
2022-11-12T00:31:10.727Z,97930.72
2022-11-12T00:33:42.640Z,97919.91
2022-11-12T00:36:11.435Z,97919.28
2022-11-12T00:38:39.776Z,97918.09
2022-11-12T00:41:08.118Z,97917.25
2022-11-12T00:43:37.839Z,97913.66
2022-11-12T00:46:06.290Z,97915.97
2022-11-12T00:48:34.619Z,97919.53
2022-11-12T00:51:04.269Z,97914.13
2022-11-12T00:53:32.631Z,97913.03
2022-11-12T00:56:02.241Z,97901.72
2022-11-12T00:58:31.352Z,97908.38
2022-11-12T01:01:06.338Z,97896.34
2022-11-12T01:03:34.884Z,97893.88
2022-11-12T01:06:04.666Z,97894.59
2022-11-12T01:08:33.223Z,97898.66
2022-11-12T01:11:07.367Z,97883.25
2022-11-12T01:13:37.790Z,97889.91
2022-11-12T01:16:13.368Z,97877.97
2022-11-12T01:18:41.661Z,97888.31
2022-11-12T01:21:10.097Z,97882.56
2022-11-12T01:23:39.926Z,97885.34
2022-11-12T01:26:09.876Z,97879.31
2022-11-12T01:28:39.008Z,97882.09
2022-11-12T01:31:16.943Z,97872.81
2022-11-12T01:33:47.643Z,97875.59
2022-11-12T01:36:16.288Z,97873.69
2022-11-12T01:38:46.091Z,97873.78
2022-11-12T01:41:16.884Z,97873.63
2022-11-12T01:43:45.245Z,97873.00
2022-11-12T01:46:18.793Z,97869.25
2022-11-12T01:48:49.953Z,97865.09
2022-11-12T01:51:18.326Z,97862.59
2022-11-12T01:53:49.052Z,97860.75
2022-11-12T01:56:17.885Z,97852.56
2022-11-12T01:58:46.476Z,97851.56
2022-11-12T02:01:16.168Z,97850.03
2022-11-12T02:03:44.729Z,97855.47
2022-11-12T02:06:15.040Z,97851.03
2022-11-12T02:08:43.541Z,97854.28
2022-11-12T02:11:14.298Z,97857.84
2022-11-12T02:14:01.129Z,97858.91
2022-11-12T02:16:33.597Z,97849.59
2022-11-12T02:19:02.553Z,97854.53
2022-11-12T02:21:32.524Z,97849.97
2022-11-12T02:24:02.279Z,97849.31
2022-11-12T02:26:34.139Z,97848.63
2022-11-12T02:29:02.624Z,97849.91
2022-11-12T02:31:31.140Z,97849.16
2022-11-12T02:33:59.492Z,97845.53
2022-11-12T02:36:28.298Z,97849.81
2022-11-12T02:38:58.284Z,97848.13
2022-11-12T02:41:26.633Z,97846.59
2022-11-12T02:43:54.949Z,97842.16
2022-11-12T02:46:23.216Z,97839.44
2022-11-12T02:48:51.472Z,97838.22
2022-11-12T02:51:19.847Z,97843.94
2022-11-12T02:53:48.115Z,97847.94
2022-11-12T02:56:17.778Z,97856.25
2022-11-12T02:58:46.002Z,97849.31
2022-11-12T03:01:14.338Z,97852.44
2022-11-12T03:03:42.650Z,97854.44
2022-11-12T03:06:11.019Z,97853.25
2022-11-12T03:08:39.423Z,97855.97
2022-11-12T03:11:09.012Z,97855.13
2022-11-12T03:13:38.832Z,97855.88
2022-11-12T03:16:07.709Z,97855.28
2022-11-12T03:18:36.062Z,97856.03
2022-11-12T03:21:04.943Z,97851.19
2022-11-12T03:23:33.204Z,97847.34
2022-11-12T03:26:03.862Z,97844.56
2022-11-12T03:28:31.992Z,97843.00
2022-11-12T03:31:01.716Z,97846.16
2022-11-12T03:33:30.009Z,97847.22
2022-11-12T03:35:58.346Z,97846.56
2022-11-12T03:38:27.071Z,97847.91
2022-11-12T03:40:55.540Z,97842.16
2022-11-12T03:43:23.783Z,97848.28
2022-11-12T03:45:52.128Z,97850.69
2022-11-12T03:48:21.921Z,97848.94
2022-11-12T03:50:50.199Z,97851.44
2022-11-12T03:53:18.608Z,97853.63
2022-11-12T03:55:46.895Z,97858.06
2022-11-12T03:58:15.226Z,97857.38
2022-11-12T04:00:43.607Z,97862.34
2022-11-12T04:03:12.036Z,97861.31
2022-11-12T04:05:59.021Z,97856.34
2022-11-12T04:08:39.629Z,97859.69
2022-11-12T04:11:09.890Z,97855.63
2022-11-12T04:13:39.006Z,97859.56
2022-11-12T04:16:35.128Z,97862.72
2022-11-12T04:19:22.211Z,97856.56
2022-11-12T04:21:55.878Z,97858.16
2022-11-12T04:24:44.344Z,97864.28
2022-11-12T04:27:15.241Z,97868.47
2022-11-12T04:30:01.174Z,97862.25
2022-11-12T04:32:29.755Z,97865.13
2022-11-12T04:34:58.162Z,97871.13
2022-11-12T04:37:29.160Z,97857.06
2022-11-12T04:40:18.920Z,97859.31
2022-11-12T04:43:06.560Z,97858.75
2022-11-12T04:45:42.748Z,97861.31
2022-11-12T04:48:11.067Z,97854.97
2022-11-12T04:50:39.500Z,97857.47
2022-11-12T04:53:09.188Z,97865.03
2022-11-12T04:55:37.494Z,97865.34
2022-11-12T04:58:05.824Z,97865.16
2022-11-12T05:00:34.248Z,97871.97
2022-11-12T05:03:02.516Z,97869.63
2022-11-12T05:05:33.852Z,97860.56
2022-11-12T05:08:02.685Z,97862.47
2022-11-12T05:10:32.404Z,97865.13
2022-11-12T05:13:00.924Z,97854.91
2022-11-12T05:15:29.268Z,97852.41
2022-11-12T05:17:57.621Z,97861.31
2022-11-12T05:20:25.861Z,97859.94
2022-11-12T05:23:06.187Z,97859.28
2022-11-12T05:25:37.232Z,97849.94
2022-11-12T05:28:07.203Z,97866.09
2022-11-12T05:30:36.712Z,97866.22
2022-11-12T05:33:05.278Z,97866.66
2022-11-12T05:35:33.675Z,97866.03
2022-11-12T05:38:02.050Z,97867.47
2022-11-12T05:40:30.292Z,97867.84
2022-11-12T05:42:59.948Z,97869.94
2022-11-12T05:45:28.242Z,97872.50
2022-11-12T05:47:56.669Z,97880.22
2022-11-12T05:50:28.185Z,97875.38
2022-11-12T05:53:03.199Z,97885.91
2022-11-12T05:55:36.911Z,97879.34
2022-11-12T05:58:07.622Z,97878.34
2022-11-12T06:00:39.109Z,97884.28
2022-11-12T06:03:07.832Z,97891.09
2022-11-12T06:05:36.488Z,97891.25
2022-11-12T06:08:05.583Z,97902.94
2022-11-12T06:10:34.204Z,97892.78
2022-11-12T06:13:02.476Z,97894.78
2022-11-12T06:15:38.006Z,97906.88
2022-11-12T06:18:07.588Z,97896.56
2022-11-12T06:20:36.238Z,97901.63
2022-11-12T06:23:04.613Z,97903.50
2022-11-12T06:25:33.017Z,97898.88
2022-11-12T06:28:01.316Z,97895.41
2022-11-12T06:30:29.754Z,97890.44
2022-11-12T06:32:59.421Z,97905.22
2022-11-12T06:35:27.677Z,97902.69
2022-11-12T06:37:56.392Z,97912.34
2022-11-12T06:40:24.729Z,97902.63
2022-11-12T06:42:57.966Z,97912.41
2022-11-12T06:45:26.682Z,97899.28
2022-11-12T06:48:00.295Z,97903.88
2022-11-12T06:50:28.606Z,97913.06
2022-11-12T06:52:59.768Z,97909.59
2022-11-12T06:55:28.072Z,97910.22
2022-11-12T06:57:56.482Z,97911.09
2022-11-12T07:00:24.857Z,97910.63
2022-11-12T07:02:53.166Z,97905.50
2022-11-12T07:05:22.997Z,97909.41
2022-11-12T07:07:51.379Z,97911.44
2022-11-12T07:10:19.971Z,97913.44
2022-11-12T07:12:53.132Z,97910.19
2022-11-12T07:15:21.865Z,97917.66
2022-11-12T07:17:50.237Z,97921.97
2022-11-12T07:20:18.730Z,97923.88
2022-11-12T07:22:48.502Z,97914.16
2022-11-12T07:25:17.035Z,97921.88
2022-11-12T07:27:45.405Z,97923.78
2022-11-12T07:30:14.482Z,97915.34
2022-11-12T07:32:46.207Z,97916.63
2022-11-12T07:35:17.963Z,97918.50
2022-11-12T07:37:46.279Z,97922.22
2022-11-12T07:40:16.386Z,97923.78
2022-11-12T07:42:46.009Z,97906.75
2022-11-12T07:45:14.436Z,97916.59
2022-11-12T07:47:42.764Z,97909.00
2022-11-12T07:50:11.426Z,97903.50
2022-11-12T07:52:39.803Z,97912.88
2022-11-12T07:55:08.849Z,97914.63
2022-11-12T07:57:38.558Z,97919.63
2022-11-12T08:00:08.150Z,97921.78
2022-11-12T08:02:36.702Z,97916.81
2022-11-12T08:05:12.005Z,97915.06
2022-11-12T08:07:43.073Z,97908.16
2022-11-12T08:10:11.676Z,97909.78
2022-11-12T08:12:41.361Z,97912.13
2022-11-12T08:15:10.374Z,97913.78
2022-11-12T08:17:39.991Z,97912.31
2022-11-12T08:20:09.325Z,97908.00
2022-11-12T08:22:37.751Z,97915.38
2022-11-12T08:25:06.855Z,97910.66
2022-11-12T08:27:35.266Z,97919.06
2022-11-12T08:30:05.782Z,97916.03
2022-11-12T08:32:34.028Z,97921.25
2022-11-12T08:35:02.511Z,97924.34
2022-11-12T08:37:30.760Z,97924.47
2022-11-12T08:39:59.045Z,97916.34
2022-11-12T08:42:27.383Z,97924.56
2022-11-12T08:44:55.596Z,97924.91
2022-11-12T08:47:25.256Z,97932.75
2022-11-12T08:49:53.709Z,97922.06
2022-11-12T08:52:22.069Z,97928.69
2022-11-12T08:54:50.323Z,97931.34
2022-11-12T08:57:18.678Z,97925.72
2022-11-12T08:59:47.030Z,97928.25
2022-11-12T09:02:15.557Z,97931.38
2022-11-12T09:04:45.474Z,97927.72
2022-11-12T09:07:43.250Z,97927.78
2022-11-12T09:10:02.215Z,97933.44
2022-11-12T09:12:30.818Z,97942.81
2022-11-12T09:15:09.578Z,97924.53
2022-11-12T09:17:47.394Z,97928.63
2022-11-12T09:20:17.437Z,97922.34
2022-11-12T09:22:45.719Z,97933.41
2022-11-12T09:25:14.056Z,97939.91
2022-11-12T09:27:48.133Z,97941.38
2022-11-12T09:30:17.084Z,97943.41
2022-11-12T09:32:45.448Z,97952.44
2022-11-12T09:35:13.752Z,97950.63
2022-11-12T09:37:43.432Z,97951.28
2022-11-12T09:40:17.571Z,97948.25
2022-11-12T09:42:48.390Z,97944.38
2022-11-12T09:45:22.270Z,97941.84
2022-11-12T09:47:52.944Z,97940.66
2022-11-12T09:50:22.419Z,97951.16
2022-11-12T09:52:57.390Z,97945.63
2022-11-12T09:55:31.336Z,97944.84
2022-11-12T09:57:59.630Z,97930.81
2022-11-12T10:00:27.985Z,97930.75
2022-11-12T10:03:00.932Z,97945.81
2022-11-12T10:05:34.686Z,97939.44
2022-11-12T10:08:21.658Z,97941.56
2022-11-12T10:10:51.405Z,97934.72
2022-11-12T10:13:28.564Z,97931.25
2022-11-12T10:16:35.125Z,97925.38
2022-11-12T10:19:28.477Z,97914.09
2022-11-12T10:22:04.616Z,97911.69
2022-11-12T10:24:37.989Z,97916.19
2022-11-12T10:27:14.005Z,97918.03
2022-11-12T10:29:49.209Z,97897.81
2022-11-12T10:32:17.615Z,97900.16
2022-11-12T10:34:46.018Z,97913.34
2022-11-12T10:37:17.382Z,97894.09
2022-11-12T10:39:47.756Z,97898.56
2022-11-12T10:42:18.338Z,97899.25
2022-11-12T10:44:46.565Z,97882.69
2022-11-12T10:47:24.735Z,97893.91
2022-11-12T10:50:17.574Z,97889.94
2022-11-12T10:53:00.649Z,97884.66
2022-11-12T10:55:32.041Z,97880.84
2022-11-12T10:58:21.365Z,97883.75
2022-11-12T11:01:07.603Z,97875.44
2022-11-12T11:03:37.653Z,97868.94
2022-11-12T11:06:07.763Z,97873.88
2022-11-12T11:08:39.676Z,97868.72
2022-11-12T11:11:25.836Z,97862.03
2022-11-12T11:13:56.041Z,97856.09
2022-11-12T11:16:25.906Z,97852.97
2022-11-12T11:18:57.421Z,97859.25
2022-11-12T11:21:51.679Z,97858.56
2022-11-12T11:24:31.210Z,97855.91
2022-11-12T11:27:05.541Z,97855.59
2022-11-12T11:29:58.831Z,97847.03
2022-11-12T11:32:42.090Z,97852.81
2022-11-12T11:35:22.062Z,97857.91
2022-11-12T11:38:02.456Z,97850.81
2022-11-12T11:40:33.223Z,97848.09
2022-11-12T11:43:31.078Z,97849.03
2022-11-12T11:46:07.231Z,97855.28
2022-11-12T11:48:46.989Z,97839.47
2022-11-12T11:51:28.086Z,97852.16
2022-11-12T11:54:03.359Z,97844.75
2022-11-12T11:56:35.296Z,97838.94
2022-11-12T11:59:13.923Z,97838.13
2022-11-12T12:01:58.252Z,97826.94
2022-11-12T12:04:44.159Z,97835.25
2022-11-12T12:07:23.101Z,97831.41
2022-11-12T12:09:58.254Z,97835.41
2022-11-12T12:12:36.453Z,97830.44
2022-11-12T12:15:20.519Z,97826.88
2022-11-12T12:17:57.852Z,97823.75
2022-11-12T12:20:30.311Z,97816.47
2022-11-12T12:23:01.714Z,97817.41
2022-11-12T12:25:33.620Z,97813.94
2022-11-12T12:28:06.771Z,97817.50
2022-11-12T12:30:38.089Z,97821.00
2022-11-12T12:33:15.596Z,97811.88
2022-11-12T12:35:51.780Z,97809.47
2022-11-12T12:38:24.825Z,97813.22
2022-11-12T12:40:58.836Z,97799.00
2022-11-12T12:43:30.238Z,97803.47
2022-11-12T12:46:00.013Z,97803.69
2022-11-12T12:48:31.803Z,97793.56
2022-11-12T12:51:00.255Z,97784.28
2022-11-12T12:53:35.767Z,97778.53
2022-11-12T12:56:05.811Z,97780.09
2022-11-12T12:58:35.427Z,97774.19
2022-11-12T13:01:08.263Z,97771.16
2022-11-12T13:04:02.383Z,97765.41
2022-11-12T13:06:35.530Z,97761.94
2022-11-12T13:09:06.085Z,97762.75
2022-11-12T13:12:08.883Z,97762.88
2022-11-12T13:14:54.523Z,97757.56
2022-11-12T13:17:51.467Z,97751.22
2022-11-12T13:20:38.529Z,97754.31
2022-11-12T13:23:11.739Z,97744.66
2022-11-12T13:25:40.262Z,97741.63
2022-11-12T13:28:10.609Z,97745.53
2022-11-12T13:31:02.436Z,97748.66
2022-11-12T13:33:34.714Z,97749.47
2022-11-12T13:36:26.549Z,97753.94
2022-11-12T13:38:59.604Z,97739.13
2022-11-12T13:41:46.418Z,97751.56
2022-11-12T13:44:17.555Z,97749.19
2022-11-12T13:46:46.777Z,97749.41
2022-11-12T13:49:18.409Z,97744.34
2022-11-12T13:51:48.114Z,97745.28
2022-11-12T13:54:31.229Z,97746.22
2022-11-12T13:57:14.870Z,97733.13
2022-11-12T13:59:43.329Z,97726.72
2022-11-12T14:02:23.340Z,97723.06
2022-11-12T14:04:53.809Z,97729.91
2022-11-12T14:07:35.492Z,97726.91
2022-11-12T14:10:07.863Z,97732.28
2022-11-12T14:12:47.042Z,97717.88
2022-11-12T14:15:24.989Z,97717.59
2022-11-12T14:17:59.447Z,97713.50
2022-11-12T14:20:31.394Z,97714.06
2022-11-12T14:23:05.720Z,97707.69
2022-11-12T14:25:34.396Z,97713.44
2022-11-12T14:28:02.819Z,97703.41
2022-11-12T14:30:32.197Z,97707.50
2022-11-12T14:33:02.221Z,97708.03
2022-11-12T14:35:34.662Z,97706.16
2022-11-12T14:38:21.321Z,97701.47
2022-11-12T14:40:52.433Z,97697.16
2022-11-12T14:43:28.268Z,97694.56
2022-11-12T14:45:57.961Z,97692.22
2022-11-12T14:48:26.808Z,97698.34
2022-11-12T14:51:01.651Z,97688.19
2022-11-12T14:53:33.113Z,97684.88
2022-11-12T14:56:02.932Z,97685.72
2022-11-12T14:58:32.101Z,97681.13
2022-11-12T15:01:00.530Z,97673.25
2022-11-12T15:03:33.716Z,97674.84
2022-11-12T15:06:11.201Z,97677.50
2022-11-12T15:08:41.120Z,97684.38
2022-11-12T15:11:23.537Z,97679.34
2022-11-12T15:13:52.950Z,97685.44
2022-11-12T15:16:24.607Z,97673.47
2022-11-12T15:19:20.959Z,97674.84
2022-11-12T15:21:52.394Z,97672.97
2022-11-12T15:24:32.094Z,97682.59
2022-11-12T15:27:02.167Z,97677.78
2022-11-12T15:29:32.794Z,97676.91
2022-11-12T15:32:02.005Z,97670.50
2022-11-12T15:34:45.436Z,97666.94
2022-11-12T15:37:24.026Z,97664.44
2022-11-12T15:39:55.114Z,97672.13
2022-11-12T15:42:27.874Z,97673.22
2022-11-12T15:44:59.696Z,97677.75
2022-11-12T15:47:28.064Z,97678.81
2022-11-12T15:49:58.731Z,97671.50
2022-11-12T15:52:28.276Z,97669.25
2022-11-12T15:54:56.620Z,97678.09
2022-11-12T15:57:26.874Z,97680.28
2022-11-12T16:00:02.964Z,97685.72
2022-11-12T16:02:34.941Z,97680.19
2022-11-12T16:05:03.304Z,97677.84
2022-11-12T16:07:34.427Z,97671.84
2022-11-12T16:10:02.779Z,97661.41
2022-11-12T16:12:31.138Z,97660.88
2022-11-12T16:15:00.300Z,97665.91
2022-11-12T16:17:28.744Z,97672.69
2022-11-12T16:19:57.132Z,97662.56
2022-11-12T16:22:25.904Z,97666.50
2022-11-12T16:24:55.630Z,97678.75
2022-11-12T16:27:24.016Z,97677.19
2022-11-12T16:29:52.502Z,97664.91
2022-11-12T16:32:22.175Z,97668.72
2022-11-12T16:34:50.503Z,97660.44
2022-11-12T16:37:18.881Z,97660.31
2022-11-12T16:39:47.229Z,97666.06
2022-11-12T16:42:16.979Z,97655.50
2022-11-12T16:44:45.442Z,97651.91
2022-11-12T16:47:13.814Z,97658.53
2022-11-12T16:49:42.818Z,97662.25
2022-11-12T16:52:11.606Z,97669.72
2022-11-12T16:54:40.098Z,97674.53
2022-11-12T16:57:10.507Z,97667.47
2022-11-12T16:59:40.285Z,97665.78
2022-11-12T17:02:13.199Z,97654.91
2022-11-12T17:04:41.582Z,97654.19
2022-11-12T17:07:10.133Z,97668.66
2022-11-12T17:09:38.518Z,97665.53
2022-11-12T17:12:06.998Z,97654.47
2022-11-12T17:14:35.402Z,97670.69
2022-11-12T17:17:05.166Z,97659.13
2022-11-12T17:19:33.551Z,97652.03
2022-11-12T17:22:01.904Z,97651.69
2022-11-12T17:24:30.475Z,97656.06
2022-11-12T17:27:00.165Z,97645.38
2022-11-12T17:29:28.705Z,97649.53
2022-11-12T17:31:57.127Z,97648.13
2022-11-12T17:34:26.986Z,97644.69
2022-11-12T17:36:55.403Z,97643.75
2022-11-12T17:39:23.763Z,97639.44
2022-11-12T17:41:52.182Z,97637.13
2022-11-12T17:44:21.353Z,97638.59
2022-11-12T17:46:50.479Z,97637.88
2022-11-12T17:49:19.682Z,97635.81
2022-11-12T17:51:49.422Z,97637.84
2022-11-12T17:54:17.750Z,97645.97
2022-11-12T17:56:46.092Z,97630.00
2022-11-12T17:59:14.439Z,97632.19
2022-11-12T18:01:42.885Z,97628.75
2022-11-12T18:04:11.622Z,97628.00
2022-11-12T18:06:40.208Z,97634.03
2022-11-12T18:09:14.439Z,97621.97
2022-11-12T18:11:44.696Z,97627.88
2022-11-12T18:14:13.522Z,97626.34
2022-11-12T18:16:42.029Z,97621.25
2022-11-12T18:19:12.534Z,97625.88
2022-11-12T18:21:41.375Z,97622.97
2022-11-12T18:24:15.134Z,97628.56
2022-11-12T18:26:44.403Z,97621.91
2022-11-12T18:29:13.373Z,97619.78
2022-11-12T18:31:41.718Z,97617.44
2022-11-12T18:34:12.173Z,97617.91
2022-11-12T18:36:40.566Z,97611.22
2022-11-12T18:39:08.941Z,97610.63
2022-11-12T18:41:38.746Z,97606.72
2022-11-12T18:44:07.236Z,97612.16
2022-11-12T18:46:35.722Z,97613.25
2022-11-12T18:49:04.060Z,97617.53
2022-11-12T18:51:32.430Z,97601.31
2022-11-12T18:54:00.716Z,97603.34
2022-11-12T18:56:29.050Z,97602.38
2022-11-12T18:58:58.764Z,97598.44
2022-11-12T19:01:27.304Z,97604.38
2022-11-12T19:03:57.226Z,97595.53
2022-11-12T19:06:26.051Z,97591.25
2022-11-12T19:09:00.193Z,97601.53
2022-11-12T19:11:28.964Z,97601.06
2022-11-12T19:13:58.889Z,97593.22
2022-11-12T19:16:27.387Z,97578.00
2022-11-12T19:18:55.913Z,97576.31
2022-11-12T19:21:25.609Z,97575.28
2022-11-12T19:23:55.052Z,97573.44
2022-11-12T19:26:24.202Z,97574.72
2022-11-12T19:28:52.708Z,97566.25
2022-11-12T19:31:24.028Z,97573.28
2022-11-12T19:33:52.797Z,97560.88
2022-11-12T19:36:22.658Z,97563.81
2022-11-12T19:38:55.556Z,97559.50
2022-11-12T19:41:24.144Z,97565.72
2022-11-12T19:43:52.987Z,97572.09
2022-11-12T19:46:22.789Z,97569.66
2022-11-12T19:48:51.816Z,97560.13
2022-11-12T19:51:20.149Z,97561.34
2022-11-12T19:53:48.497Z,97556.78
2022-11-12T19:56:18.743Z,97550.34
2022-11-12T19:58:48.240Z,97544.06
2022-11-12T20:01:18.351Z,97545.78
2022-11-12T20:03:48.272Z,97551.38
2022-11-12T20:06:18.808Z,97559.53
2022-11-12T20:08:47.569Z,97549.56
2022-11-12T20:11:18.436Z,97558.91
2022-11-12T20:13:46.938Z,97550.53
2022-11-12T20:16:20.760Z,97550.06
2022-11-12T20:18:55.660Z,97549.78
2022-11-12T20:21:24.170Z,97541.47
2022-11-12T20:23:52.497Z,97546.19
2022-11-12T20:26:20.817Z,97550.31
2022-11-12T20:28:49.206Z,97547.78
2022-11-12T20:31:20.515Z,97544.25
2022-11-12T20:33:49.797Z,97540.13
2022-11-12T20:36:21.021Z,97527.75
2022-11-12T20:38:50.571Z,97529.22
2022-11-12T20:41:20.724Z,97525.84
2022-11-12T20:43:49.420Z,97526.94
2022-11-12T20:46:17.709Z,97533.72
2022-11-12T20:48:46.056Z,97523.47
2022-11-12T20:51:25.554Z,97529.91
2022-11-12T20:54:00.463Z,97537.97
2022-11-12T20:56:29.833Z,97531.91
2022-11-12T20:58:58.437Z,97528.81
2022-11-12T21:01:28.275Z,97527.41
2022-11-12T21:03:56.720Z,97529.94
2022-11-12T21:06:26.441Z,97524.88
2022-11-12T21:08:58.881Z,97523.94
2022-11-12T21:11:27.356Z,97528.09
2022-11-12T21:13:55.804Z,97512.03
2022-11-12T21:16:24.118Z,97511.13
2022-11-12T21:18:52.529Z,97504.50
2022-11-12T21:21:21.291Z,97514.94
2022-11-12T21:23:50.957Z,97514.66
2022-11-12T21:26:22.687Z,97510.50
2022-11-12T21:28:52.249Z,97513.38
2022-11-12T21:31:22.092Z,97501.50
2022-11-12T21:33:51.099Z,97493.56
2022-11-12T21:36:20.225Z,97501.25
2022-11-12T21:38:48.727Z,97501.25
2022-11-12T21:41:18.183Z,97500.78
2022-11-12T21:43:48.403Z,97499.56
2022-11-12T21:46:18.659Z,97500.72
2022-11-12T21:48:50.977Z,97497.31
2022-11-12T21:51:24.043Z,97488.84
2022-11-12T21:53:55.243Z,97487.53
2022-11-12T21:56:24.174Z,97487.28
2022-11-12T21:58:56.080Z,97485.19
2022-11-12T22:01:25.879Z,97474.28
2022-11-12T22:03:55.916Z,97478.47
2022-11-12T22:06:25.839Z,97490.09
2022-11-12T22:08:54.712Z,97484.97
2022-11-12T22:11:23.569Z,97482.19
2022-11-12T22:13:52.000Z,97481.59
2022-11-12T22:16:23.012Z,97487.34
2022-11-12T22:18:52.653Z,97475.09
2022-11-12T22:21:22.582Z,97486.84
2022-11-12T22:23:51.047Z,97479.25
2022-11-12T22:26:21.893Z,97474.66
2022-11-12T22:28:50.364Z,97482.00
2022-11-12T22:31:22.164Z,97485.09
2022-11-12T22:33:51.065Z,97484.16
2022-11-12T22:36:21.411Z,97470.56
2022-11-12T22:38:51.457Z,97463.34
2022-11-12T22:41:21.468Z,97472.94
2022-11-12T22:43:50.700Z,97465.47
2022-11-12T22:46:22.284Z,97454.81
2022-11-12T22:48:50.991Z,97453.97
2022-11-12T22:51:21.057Z,97458.09
2022-11-12T22:53:53.622Z,97461.69
2022-11-12T22:56:22.016Z,97458.06
2022-11-12T22:58:51.333Z,97445.59
2022-11-12T23:01:23.268Z,97444.66
2022-11-12T23:03:52.743Z,97443.81
2022-11-12T23:06:21.186Z,97439.81
2022-11-12T23:08:49.747Z,97434.13
2022-11-12T23:11:19.399Z,97441.31
2022-11-12T23:13:47.990Z,97444.00
2022-11-12T23:16:18.022Z,97433.41
2022-11-12T23:18:48.054Z,97437.28
2022-11-12T23:21:17.831Z,97440.97
2022-11-12T23:23:46.154Z,97448.66
2022-11-12T23:26:16.065Z,97438.41
2022-11-12T23:28:44.474Z,97443.84
2022-11-12T23:31:15.033Z,97435.31
2022-11-12T23:33:47.009Z,97439.56
2022-11-12T23:36:15.682Z,97439.06
2022-11-12T23:38:44.536Z,97434.03
2022-11-12T23:41:14.537Z,97436.34
2022-11-12T23:43:43.018Z,97431.88
2022-11-12T23:46:11.413Z,97427.78
2022-11-12T23:48:39.892Z,97423.25
2022-11-12T23:51:12.351Z,97426.47
2022-11-12T23:53:41.243Z,97413.16
2022-11-12T23:56:13.584Z,97420.53
2022-11-12T23:58:42.708Z,97413.00
